createdAt,value
2023-02-06T00:01:31.891Z,10.40
2023-02-06T00:03:59.799Z,9.48
2023-02-06T00:06:27.816Z,9.43
2023-02-06T00:08:55.702Z,10.40
2023-02-06T00:11:25.563Z,10.73
2023-02-06T00:13:53.816Z,12.35
2023-02-06T00:16:23.839Z,9.80
2023-02-06T00:18:52.676Z,14.07
2023-02-06T00:21:21.988Z,10.40
2023-02-06T00:23:50.165Z,10.60
2023-02-06T00:26:18.607Z,10.23
2023-02-06T00:28:48.199Z,11.45
2023-02-06T00:31:16.922Z,10.93
2023-02-06T00:33:44.929Z,8.82
2023-02-06T00:36:12.836Z,10.45
2023-02-06T00:38:41.128Z,10.77
2023-02-06T00:41:09.216Z,12.57
2023-02-06T00:43:37.966Z,11.32
2023-02-06T00:46:09.322Z,13.45
2023-02-06T00:48:37.960Z,13.85
2023-02-06T00:51:06.116Z,13.25
2023-02-06T00:53:34.020Z,12.85
2023-02-06T00:56:01.916Z,11.68
2023-02-06T00:58:29.789Z,11.80
2023-02-06T01:00:57.704Z,13.85
2023-02-06T01:03:27.185Z,13.27
2023-02-06T01:05:55.085Z,15.60
2023-02-06T01:08:23.155Z,13.88
2023-02-06T01:10:52.442Z,12.93
2023-02-06T01:13:21.031Z,13.23
2023-02-06T01:15:51.013Z,12.98
2023-02-06T01:18:19.095Z,12.77
2023-02-06T01:20:48.350Z,14.38
2023-02-06T01:23:16.271Z,13.10
2023-02-06T01:25:45.301Z,13.55
2023-02-06T01:28:13.218Z,13.30
2023-02-06T01:30:41.111Z,13.30
2023-02-06T01:33:09.034Z,13.55
2023-02-06T01:35:38.290Z,13.50
2023-02-06T01:38:09.874Z,11.48
2023-02-06T01:40:38.849Z,13.43
2023-02-06T01:43:11.190Z,13.60
2023-02-06T01:45:45.889Z,11.88
2023-02-06T01:48:18.330Z,11.93
2023-02-06T01:50:52.294Z,11.98
2023-02-06T01:53:23.331Z,11.27
2023-02-06T01:55:53.481Z,13.00
2023-02-06T01:58:29.039Z,11.90
2023-02-06T02:00:58.884Z,11.57
2023-02-06T02:03:27.442Z,10.75
2023-02-06T02:06:02.140Z,12.32
2023-02-06T02:08:34.807Z,11.32
2023-02-06T02:11:04.298Z,10.82
2023-02-06T02:13:34.195Z,11.60
2023-02-06T02:16:08.137Z,11.43
2023-02-06T02:18:47.465Z,13.20
2023-02-06T02:21:48.497Z,15.95
2023-02-06T02:24:24.216Z,12.40
2023-02-06T02:27:20.080Z,12.27
2023-02-06T02:30:17.888Z,11.80
2023-02-06T02:33:02.460Z,13.38
2023-02-06T02:35:46.702Z,16.25
2023-02-06T02:38:28.565Z,14.98
2023-02-06T02:41:03.865Z,13.73
2023-02-06T02:43:40.803Z,16.95
2023-02-06T02:46:15.717Z,17.10
2023-02-06T02:48:47.407Z,15.45
2023-02-06T02:51:18.938Z,14.77
2023-02-06T02:53:47.164Z,14.85
2023-02-06T02:56:17.977Z,15.20
2023-02-06T02:58:48.999Z,14.68
2023-02-06T03:01:22.525Z,16.08
2023-02-06T03:03:54.368Z,16.00
2023-02-06T03:06:46.874Z,16.05
2023-02-06T03:09:23.607Z,10.38
2023-02-06T03:12:00.005Z,15.60
2023-02-06T03:14:34.091Z,15.18
2023-02-06T03:17:06.967Z,16.25
2023-02-06T03:19:41.047Z,16.58
2023-02-06T03:22:12.361Z,16.08
2023-02-06T03:24:41.017Z,15.13
2023-02-06T03:27:14.156Z,18.17
2023-02-06T03:32:19.435Z,16.42
2023-02-06T03:34:56.895Z,17.52
2023-02-06T03:37:27.450Z,14.75
2023-02-06T03:39:55.940Z,13.98
2023-02-06T03:42:24.932Z,14.60
2023-02-06T03:44:57.679Z,14.63
2023-02-06T03:47:26.820Z,16.63
2023-02-06T03:49:56.925Z,17.58
2023-02-06T03:52:30.981Z,18.20
2023-02-06T03:55:02.847Z,20.55
2023-02-06T03:57:34.129Z,17.33
2023-02-06T04:00:02.143Z,16.80
2023-02-06T04:02:41.447Z,16.50
2023-02-06T04:05:09.661Z,15.25
2023-02-06T04:07:39.479Z,17.98
2023-02-06T04:10:07.736Z,18.73
2023-02-06T04:12:36.067Z,15.88
2023-02-06T04:15:04.347Z,17.67
2023-02-06T04:17:49.623Z,18.00
2023-02-06T04:20:20.611Z,16.70
2023-02-06T04:22:50.296Z,16.35
2023-02-06T04:25:18.356Z,16.20
2023-02-06T04:27:46.301Z,17.23
2023-02-06T04:30:15.667Z,18.25
2023-02-06T04:32:43.554Z,17.17
2023-02-06T04:35:11.825Z,17.05
2023-02-06T04:37:39.900Z,16.35
2023-02-06T04:40:10.168Z,14.60
2023-02-06T04:42:38.063Z,18.10
2023-02-06T04:45:06.623Z,13.82
2023-02-06T04:47:34.483Z,18.00
2023-02-06T04:50:02.414Z,19.33
2023-02-06T04:52:30.283Z,17.52
2023-02-06T04:54:58.203Z,18.52
2023-02-06T04:57:27.773Z,20.05
2023-02-06T04:59:55.628Z,17.73
2023-02-06T05:02:23.556Z,16.98
2023-02-06T05:04:51.547Z,16.55
2023-02-06T05:07:19.606Z,17.13
2023-02-06T05:09:47.490Z,16.42
2023-02-06T05:12:15.326Z,17.52
2023-02-06T05:14:44.575Z,16.88
2023-02-06T05:17:12.431Z,17.17
2023-02-06T05:19:40.294Z,19.08
2023-02-06T05:22:08.165Z,16.17
2023-02-06T05:24:36.096Z,15.40
2023-02-06T05:27:03.995Z,16.88
2023-02-06T05:29:32.060Z,19.08
2023-02-06T05:32:01.265Z,18.67
2023-02-06T05:34:29.097Z,16.75
2023-02-06T05:36:57.000Z,15.98
2023-02-06T05:39:24.881Z,15.05
2023-02-06T05:41:52.733Z,16.90
2023-02-06T05:44:20.706Z,17.63
2023-02-06T05:46:49.244Z,19.08
2023-02-06T05:49:18.759Z,16.45
2023-02-06T05:51:46.763Z,16.70
2023-02-06T05:54:16.862Z,17.52
2023-02-06T05:56:45.049Z,17.45
2023-02-06T05:59:13.200Z,17.42
2023-02-06T06:01:41.066Z,16.55
2023-02-06T06:04:09.125Z,19.50
2023-02-06T06:06:38.389Z,19.05
2023-02-06T06:09:06.448Z,18.17
2023-02-06T06:11:34.356Z,18.13
2023-02-06T06:14:02.262Z,17.35
2023-02-06T06:16:30.113Z,19.40
2023-02-06T06:18:57.962Z,17.42
2023-02-06T06:21:25.992Z,17.50
2023-02-06T06:23:55.221Z,17.35
2023-02-06T06:26:23.399Z,19.17
2023-02-06T06:28:51.309Z,17.95
2023-02-06T06:31:19.319Z,18.77
2023-02-06T06:33:47.251Z,19.88
2023-02-06T06:36:15.189Z,20.40
2023-02-06T06:38:43.096Z,17.80
2023-02-06T06:41:12.339Z,17.98
2023-02-06T06:43:40.776Z,20.65
2023-02-06T06:46:09.024Z,20.35
2023-02-06T06:48:38.236Z,18.20
2023-02-06T06:51:06.899Z,18.70
2023-02-06T06:53:39.766Z,18.05
2023-02-06T06:56:09.632Z,19.85
2023-02-06T06:58:38.894Z,22.50
2023-02-06T07:01:07.071Z,19.10
2023-02-06T07:03:35.201Z,19.67
2023-02-06T07:06:03.100Z,19.35
2023-02-06T07:08:30.964Z,19.40
2023-02-06T07:10:58.920Z,19.55
2023-02-06T07:13:26.797Z,21.55
2023-02-06T07:15:56.027Z,18.63
2023-02-06T07:18:23.881Z,24.05
2023-02-06T07:20:51.778Z,21.60
2023-02-06T07:23:19.729Z,22.25
2023-02-06T07:25:47.625Z,19.42
2023-02-06T07:28:15.664Z,22.63
2023-02-06T07:30:43.677Z,23.95
2023-02-06T07:33:12.901Z,21.30
2023-02-06T07:35:43.066Z,29.27
2023-02-06T07:38:10.969Z,24.25
2023-02-06T07:40:45.068Z,24.42
2023-02-06T07:43:13.580Z,25.42
2023-02-06T07:45:41.830Z,24.08
2023-02-06T07:48:09.883Z,22.90
2023-02-06T07:50:39.280Z,22.58
2023-02-06T07:53:07.831Z,22.98
2023-02-06T07:55:37.252Z,21.77
2023-02-06T07:58:05.680Z,24.58
2023-02-06T08:00:33.606Z,21.55
2023-02-06T08:03:01.482Z,20.60
2023-02-06T08:05:29.378Z,20.60
2023-02-06T08:07:58.662Z,19.50
2023-02-06T08:10:27.205Z,23.23
2023-02-06T08:12:55.079Z,23.00
2023-02-06T08:15:22.961Z,23.30
2023-02-06T08:17:50.813Z,21.00
2023-02-06T08:20:18.831Z,19.80
2023-02-06T08:22:46.768Z,22.17
2023-02-06T08:25:16.116Z,21.63
2023-02-06T08:27:44.075Z,15.35
2023-02-06T08:30:13.374Z,16.00
2023-02-06T08:32:41.257Z,16.27
2023-02-06T08:35:09.461Z,15.15
2023-02-06T08:37:37.320Z,11.57
2023-02-06T08:40:05.945Z,10.18
2023-02-06T08:42:35.955Z,9.85
2023-02-06T08:45:04.049Z,8.55
2023-02-06T08:47:32.082Z,9.75
2023-02-06T08:50:02.184Z,9.27
2023-02-06T08:52:31.142Z,9.23
2023-02-06T08:54:59.076Z,10.38
2023-02-06T08:57:26.914Z,9.95
2023-02-06T08:59:56.143Z,8.70
2023-02-06T09:02:24.083Z,8.32
2023-02-06T09:04:52.005Z,8.95
2023-02-06T09:07:19.909Z,8.77
2023-02-06T09:09:47.807Z,8.02
2023-02-06T09:12:16.397Z,7.63
2023-02-06T09:14:44.429Z,9.25
2023-02-06T09:17:13.609Z,8.13
2023-02-06T09:19:41.662Z,10.95
2023-02-06T09:22:09.586Z,7.95
2023-02-06T09:24:38.638Z,6.47
2023-02-06T09:27:06.717Z,9.20
2023-02-06T09:29:34.798Z,7.93
2023-02-06T09:32:02.728Z,8.63
2023-02-06T09:34:31.947Z,7.85
2023-02-06T09:37:02.347Z,9.07
2023-02-06T09:39:30.585Z,7.65
2023-02-06T09:42:04.219Z,7.43
2023-02-06T09:44:36.582Z,7.97
2023-02-06T09:47:07.058Z,9.13
2023-02-06T09:49:40.400Z,7.80
2023-02-06T09:52:23.225Z,7.53
2023-02-06T09:55:00.393Z,8.70
2023-02-06T09:57:39.956Z,6.55
2023-02-06T10:00:20.276Z,8.10
2023-02-06T10:03:05.252Z,6.30
2023-02-06T10:05:48.315Z,7.30
2023-02-06T10:08:22.699Z,8.55
2023-02-06T10:10:54.245Z,7.18
2023-02-06T10:13:27.224Z,9.00
2023-02-06T10:16:00.068Z,8.35
2023-02-06T10:18:34.499Z,8.65
2023-02-06T10:21:11.202Z,7.82
2023-02-06T10:23:47.537Z,10.30
2023-02-06T10:26:18.232Z,10.27
2023-02-06T10:28:49.862Z,9.45
2023-02-06T10:31:35.631Z,7.85
2023-02-06T10:34:24.516Z,9.40
2023-02-06T10:37:06.602Z,9.20
2023-02-06T10:39:50.760Z,11.77
2023-02-06T10:42:26.766Z,7.80
2023-02-06T10:45:13.567Z,7.82
2023-02-06T10:47:54.346Z,8.02
2023-02-06T10:50:27.936Z,7.82
2023-02-06T10:53:01.052Z,7.65
2023-02-06T10:55:31.997Z,12.05
2023-02-06T10:58:06.294Z,7.25
2023-02-06T11:00:35.125Z,9.45
2023-02-06T11:03:08.610Z,8.02
2023-02-06T11:05:38.263Z,7.43
2023-02-06T11:08:19.846Z,9.07
2023-02-06T11:10:47.970Z,7.05
2023-02-06T11:13:21.993Z,8.98
2023-02-06T11:15:57.368Z,8.27
2023-02-06T11:18:29.533Z,8.13
2023-02-06T11:20:57.981Z,9.13
2023-02-06T11:23:29.332Z,7.03
2023-02-06T11:26:09.018Z,9.45
2023-02-06T11:28:39.755Z,9.13
2023-02-06T11:31:10.156Z,6.60
2023-02-06T11:33:42.197Z,7.50
2023-02-06T11:36:24.890Z,10.13
2023-02-06T11:38:59.525Z,11.00
2023-02-06T11:41:28.649Z,6.85
2023-02-06T11:44:02.525Z,8.82
2023-02-06T11:46:32.435Z,6.40
2023-02-06T11:49:07.033Z,7.63
2023-02-06T11:51:51.490Z,8.10
2023-02-06T11:54:24.161Z,8.35
2023-02-06T11:57:04.866Z,9.18
2023-02-06T11:59:34.839Z,10.45
2023-02-06T12:02:06.983Z,13.25
2023-02-06T12:04:37.823Z,8.98
2023-02-06T12:07:14.848Z,11.70
2023-02-06T12:09:44.436Z,8.88
2023-02-06T12:12:20.374Z,10.63
2023-02-06T12:14:52.723Z,6.35
2023-02-06T12:17:28.019Z,9.30
2023-02-06T12:20:02.308Z,6.57
2023-02-06T12:22:35.268Z,11.68
2023-02-06T12:25:05.746Z,6.80
2023-02-06T12:27:39.519Z,8.55
2023-02-06T12:30:24.741Z,8.18
2023-02-06T12:32:59.673Z,9.85
2023-02-06T12:35:36.356Z,10.85
2023-02-06T12:38:11.864Z,7.93
2023-02-06T12:40:48.677Z,7.65
2023-02-06T12:43:18.246Z,9.82
2023-02-06T12:45:55.102Z,9.63
2023-02-06T12:48:28.645Z,10.95
2023-02-06T12:51:07.031Z,11.55
2023-02-06T12:53:40.264Z,11.10
2023-02-06T12:56:24.561Z,9.75
2023-02-06T12:59:03.331Z,10.40
2023-02-06T13:01:46.144Z,10.90
2023-02-06T13:04:17.610Z,10.45
2023-02-06T13:06:54.642Z,12.65
2023-02-06T13:09:27.367Z,8.38
2023-02-06T13:12:08.460Z,9.45
2023-02-06T13:14:39.802Z,9.27
2023-02-06T13:17:11.775Z,11.73
2023-02-06T13:20:01.814Z,9.85
2023-02-06T13:22:43.869Z,14.50
2023-02-06T13:25:51.449Z,9.57
2023-02-06T13:28:44.134Z,11.15
2023-02-06T13:31:33.784Z,10.73
2023-02-06T13:34:06.624Z,8.23
2023-02-06T13:36:50.391Z,11.18
2023-02-06T13:39:34.592Z,12.57
2023-02-06T13:42:32.787Z,10.55
2023-02-06T13:45:05.962Z,12.10
2023-02-06T13:50:44.540Z,12.85
2023-02-06T13:53:48.960Z,9.45
2023-02-06T13:56:41.194Z,10.02
2023-02-06T13:59:17.146Z,11.20
2023-02-06T14:01:46.808Z,12.70
2023-02-06T14:04:23.357Z,10.85
2023-02-06T14:07:13.183Z,11.77
2023-02-06T14:10:22.260Z,11.77
2023-02-06T14:13:03.961Z,10.85
2023-02-06T14:15:38.296Z,11.45
2023-02-06T14:18:21.088Z,11.25
2023-02-06T14:20:56.559Z,11.47
2023-02-06T14:23:38.728Z,12.45
2023-02-06T14:26:20.172Z,11.85
2023-02-06T14:28:56.482Z,10.95
2023-02-06T14:31:40.229Z,11.65
2023-02-06T14:34:28.378Z,12.55
2023-02-06T14:37:11.433Z,12.73
2023-02-06T14:39:45.654Z,12.52
2023-02-06T14:42:18.100Z,9.18
2023-02-06T14:44:51.201Z,10.45
2023-02-06T14:47:23.174Z,12.32
2023-02-06T14:49:54.042Z,12.15
2023-02-06T14:52:27.165Z,10.75
2023-02-06T14:54:55.040Z,13.65
2023-02-06T14:57:27.134Z,14.95
2023-02-06T14:59:57.852Z,10.98
2023-02-06T15:02:31.662Z,11.30
2023-02-06T15:05:02.199Z,10.43
2023-02-06T15:07:32.291Z,11.40
2023-02-06T15:10:05.599Z,12.15
2023-02-06T15:12:34.761Z,12.85
2023-02-06T15:15:15.155Z,8.65
2023-02-06T15:17:43.794Z,12.27
2023-02-06T15:20:25.757Z,8.18
2023-02-06T15:22:58.144Z,10.75
2023-02-06T15:25:40.062Z,12.23
2023-02-06T15:28:14.005Z,13.27
2023-02-06T15:30:42.043Z,15.20
2023-02-06T15:33:11.407Z,13.85
2023-02-06T15:35:42.754Z,12.35
2023-02-06T15:38:16.876Z,9.88
2023-02-06T15:40:46.911Z,10.77
2023-02-06T15:43:17.511Z,11.57
2023-02-06T15:45:45.991Z,12.85
2023-02-06T15:48:20.404Z,13.02
2023-02-06T15:50:59.615Z,9.45
2023-02-06T15:53:33.299Z,10.48
2023-02-06T15:56:02.943Z,11.13
2023-02-06T15:58:32.981Z,12.88
2023-02-06T16:01:01.875Z,10.77
2023-02-06T16:03:31.169Z,8.93
2023-02-06T16:06:01.217Z,9.32
2023-02-06T16:08:33.136Z,11.27
2023-02-06T16:11:04.164Z,10.15
2023-02-06T16:13:33.809Z,12.07
2023-02-06T16:16:17.848Z,9.38
2023-02-06T16:18:46.530Z,8.95
2023-02-06T16:21:24.520Z,9.68
2023-02-06T16:24:07.454Z,11.07
2023-02-06T16:26:44.046Z,9.95
2023-02-06T16:29:26.442Z,10.55
2023-02-06T16:32:00.690Z,6.80
2023-02-06T16:34:40.772Z,10.45
2023-02-06T16:37:14.108Z,9.32
2023-02-06T16:39:43.642Z,9.10
2023-02-06T16:42:17.528Z,11.55
2023-02-06T16:44:49.689Z,11.10
2023-02-06T16:49:49.594Z,11.18
2023-02-06T16:52:22.572Z,10.43
2023-02-06T16:54:50.870Z,13.70
2023-02-06T16:57:25.363Z,11.23
2023-02-06T16:59:53.377Z,9.70
2023-02-06T17:02:21.291Z,16.50
2023-02-06T17:04:49.284Z,11.95
2023-02-06T17:07:21.704Z,10.00
2023-02-06T17:09:51.103Z,12.30
2023-02-06T17:12:21.455Z,14.27
2023-02-06T17:14:49.694Z,14.73
2023-02-06T17:17:19.192Z,10.65
2023-02-06T17:19:47.450Z,11.60
2023-02-06T17:22:15.461Z,11.52
2023-02-06T17:24:45.087Z,11.73
2023-02-06T17:27:15.700Z,11.68
2023-02-06T17:29:45.630Z,14.57
2023-02-06T17:32:16.145Z,13.38
2023-02-06T17:34:44.117Z,10.18
2023-02-06T17:37:20.695Z,10.18
2023-02-06T17:39:51.743Z,12.77
2023-02-06T17:42:21.741Z,10.18
2023-02-06T17:44:49.682Z,11.05
2023-02-06T17:47:17.621Z,9.73
2023-02-06T17:49:46.631Z,11.30
2023-02-06T17:52:14.824Z,13.82
2023-02-06T17:54:42.746Z,13.05
2023-02-06T17:57:13.377Z,11.35
2023-02-06T17:59:41.294Z,11.00
2023-02-06T18:02:13.159Z,16.42
2023-02-06T18:04:41.295Z,13.48
2023-02-06T18:07:09.181Z,17.35
2023-02-06T18:09:37.565Z,14.88
2023-02-06T18:12:05.567Z,16.38
2023-02-06T18:14:35.523Z,14.88
2023-02-06T18:17:04.314Z,12.32
2023-02-06T18:19:32.228Z,12.18
2023-02-06T18:22:00.212Z,11.80
2023-02-06T18:24:28.105Z,13.15
2023-02-06T18:26:56.153Z,11.68
2023-02-06T18:29:24.080Z,14.25
2023-02-06T18:31:53.344Z,13.55
2023-02-06T18:34:21.386Z,13.13
2023-02-06T18:36:49.329Z,13.25
2023-02-06T18:39:17.829Z,15.48
2023-02-06T18:42:03.513Z,14.85
2023-02-06T18:44:31.867Z,15.73
2023-02-06T18:47:01.094Z,16.00
2023-02-06T18:49:28.993Z,15.25
2023-02-06T18:51:56.878Z,14.05
2023-02-06T18:54:24.757Z,16.50
2023-02-06T18:56:52.633Z,12.80
2023-02-06T18:59:20.624Z,16.00
2023-02-06T19:01:49.145Z,12.25
2023-02-06T19:04:18.655Z,13.38
2023-02-06T19:06:47.651Z,14.20
2023-02-06T19:09:16.619Z,15.73
2023-02-06T19:11:44.628Z,18.52
2023-02-06T19:14:17.462Z,13.30
2023-02-06T19:16:50.389Z,14.82
2023-02-06T19:19:20.060Z,16.65
2023-02-06T19:21:47.989Z,15.48
2023-02-06T19:24:18.469Z,15.95
2023-02-06T19:26:46.522Z,14.10
2023-02-06T19:29:23.902Z,19.67
2023-02-06T19:31:57.987Z,17.05
2023-02-06T19:34:27.275Z,15.05
2023-02-06T19:36:55.176Z,13.95
2023-02-06T19:39:23.044Z,13.15
2023-02-06T19:41:50.910Z,15.77
2023-02-06T19:44:18.762Z,15.40
2023-02-06T19:46:46.669Z,15.55
2023-02-06T19:49:14.576Z,15.13
2023-02-06T19:51:44.710Z,18.05
2023-02-06T19:54:12.820Z,15.35
2023-02-06T19:56:44.092Z,18.30
2023-02-06T19:59:18.198Z,15.15
2023-02-06T20:01:46.343Z,15.73
2023-02-06T20:04:15.212Z,17.13
2023-02-06T20:06:45.382Z,16.67
2023-02-06T20:09:15.480Z,16.98
2023-02-06T20:11:43.775Z,14.15
2023-02-06T20:14:13.004Z,16.35
2023-02-06T20:16:42.490Z,14.55
2023-02-06T20:19:13.103Z,16.73
2023-02-06T20:21:43.012Z,15.32
2023-02-06T20:24:15.035Z,15.98
2023-02-06T20:26:43.926Z,18.92
2023-02-06T20:29:20.069Z,18.67
2023-02-06T20:31:48.616Z,15.23
2023-02-06T20:34:17.052Z,21.70
2023-02-06T20:36:45.392Z,18.52
2023-02-06T20:39:16.031Z,20.40
2023-02-06T20:41:45.451Z,15.77
2023-02-06T20:44:14.797Z,16.95
2023-02-06T20:46:43.402Z,17.77
2023-02-06T20:49:15.729Z,20.92
2023-02-06T20:51:44.172Z,18.60
2023-02-06T20:54:13.901Z,18.67
2023-02-06T20:56:42.441Z,25.40
2023-02-06T20:59:13.646Z,17.98
2023-02-06T21:01:41.793Z,17.75
2023-02-06T21:04:14.452Z,16.20
2023-02-06T21:06:43.232Z,16.27
2023-02-06T21:09:11.896Z,19.02
2023-02-06T21:11:44.199Z,17.73
2023-02-06T21:14:13.066Z,17.48
2023-02-06T21:16:42.363Z,21.63
2023-02-06T21:19:12.305Z,19.38
2023-02-06T21:21:40.643Z,22.95
2023-02-06T21:24:09.636Z,20.80
2023-02-06T21:26:38.498Z,19.58
2023-02-06T21:29:08.764Z,20.00
2023-02-06T21:31:38.846Z,27.05
2023-02-06T21:34:09.531Z,23.70
2023-02-06T21:36:38.800Z,21.15
2023-02-06T21:39:07.757Z,20.00
2023-02-06T21:41:35.726Z,23.58
2023-02-06T21:44:03.623Z,18.15
2023-02-06T21:46:33.360Z,20.63
2023-02-06T21:49:01.467Z,23.92
2023-02-06T21:51:29.707Z,22.60
2023-02-06T21:53:57.869Z,23.20
2023-02-06T21:56:28.223Z,21.95
2023-02-06T21:58:56.494Z,21.42
2023-02-06T22:01:28.312Z,23.52
2023-02-06T22:03:58.090Z,19.60
2023-02-06T22:06:26.303Z,22.95
2023-02-06T22:08:55.889Z,20.40
2023-02-06T22:11:25.321Z,17.27
2023-02-06T22:13:53.957Z,19.48
2023-02-06T22:16:23.670Z,21.40
2023-02-06T22:18:51.931Z,21.00
2023-02-06T22:21:23.336Z,21.50
2023-02-06T22:23:51.998Z,22.40
2023-02-06T22:26:22.430Z,21.02
2023-02-06T22:28:51.128Z,22.83
2023-02-06T22:31:22.935Z,22.73
2023-02-06T22:33:51.746Z,22.38
2023-02-06T22:36:23.221Z,21.88
2023-02-06T22:38:54.608Z,27.15
2023-02-06T22:41:22.582Z,22.25
2023-02-06T22:43:51.574Z,24.48
2023-02-06T22:46:21.722Z,23.38
2023-02-06T22:48:49.657Z,25.75
2023-02-06T22:51:17.709Z,26.58
2023-02-06T22:53:47.173Z,25.15
2023-02-06T22:56:32.243Z,26.27
2023-02-06T22:59:02.983Z,25.30
2023-02-06T23:01:33.162Z,27.20
2023-02-06T23:04:02.096Z,23.58
2023-02-06T23:06:31.424Z,28.98
2023-02-06T23:09:02.061Z,24.67
2023-02-06T23:11:31.677Z,25.80
2023-02-06T23:14:01.719Z,26.80
2023-02-06T23:16:30.958Z,24.67
2023-02-06T23:18:58.915Z,28.23
2023-02-06T23:21:27.283Z,24.50
2023-02-06T23:23:56.617Z,23.77
2023-02-06T23:26:25.964Z,25.23
2023-02-06T23:28:54.121Z,23.95
2023-02-06T23:31:22.067Z,23.15
2023-02-06T23:33:50.013Z,27.10
2023-02-06T23:36:19.962Z,24.67
2023-02-06T23:38:48.244Z,22.52
2023-02-06T23:41:18.538Z,23.10
2023-02-06T23:43:51.178Z,24.65
2023-02-06T23:46:20.011Z,24.70
2023-02-06T23:48:48.394Z,28.92
2023-02-06T23:51:17.177Z,27.65
2023-02-06T23:53:45.130Z,24.70
2023-02-06T23:56:14.665Z,26.05
2023-02-06T23:58:42.950Z,25.52
